createdAt,value
2018-09-28T00:00:57.049Z,55.90
2018-09-28T00:06:00.777Z,56.10
2018-09-28T00:11:04.565Z,56.20
2018-09-28T00:16:08.291Z,56.70
2018-09-28T00:21:12.017Z,57.10
2018-09-28T00:26:15.748Z,57.20
2018-09-28T00:31:19.482Z,57.30
2018-09-28T00:36:23.211Z,57.80
2018-09-28T00:41:26.934Z,58.00
2018-09-28T00:46:30.664Z,58.80
2018-09-28T00:51:34.399Z,59.70
2018-09-28T00:56:38.131Z,59.90
2018-09-28T01:01:41.884Z,60.10
2018-09-28T01:06:45.644Z,60.40
2018-09-28T01:11:49.366Z,60.50
2018-09-28T01:16:53.108Z,60.60
2018-09-28T01:21:56.815Z,61.60
2018-09-28T01:27:00.552Z,61.10
2018-09-28T01:32:04.447Z,61.40
2018-09-28T01:37:08.303Z,61.30
2018-09-28T01:42:12.039Z,61.50
2018-09-28T01:47:15.775Z,62.00
2018-09-28T01:52:19.494Z,62.20
2018-09-28T01:57:23.213Z,62.50
2018-09-28T02:02:27.170Z,63.00
2018-09-28T02:07:30.900Z,62.90
2018-09-28T02:12:34.750Z,62.90
2018-09-28T02:17:38.443Z,62.90
2018-09-28T02:22:42.135Z,62.90
2018-09-28T02:27:45.931Z,63.60
2018-09-28T02:32:49.750Z,63.60
2018-09-28T02:37:53.452Z,63.50
2018-09-28T02:42:57.164Z,63.60
2018-09-28T02:48:00.888Z,63.50
2018-09-28T02:53:04.637Z,62.40
2018-09-28T02:58:08.341Z,62.70
2018-09-28T03:03:12.123Z,62.40
2018-09-28T03:08:15.842Z,62.90
2018-09-28T03:13:19.551Z,62.80
2018-09-28T03:18:23.271Z,62.20
2018-09-28T03:23:26.989Z,62.20
2018-09-28T03:28:30.722Z,62.00
2018-09-28T03:33:34.463Z,61.30
2018-09-28T03:38:38.155Z,61.50
2018-09-28T03:43:41.991Z,59.70
2018-09-28T03:48:45.716Z,59.30
2018-09-28T03:53:49.411Z,59.70
2018-09-28T03:58:53.131Z,58.50
2018-09-28T04:03:56.859Z,58.80
2018-09-28T04:09:00.576Z,59.20
2018-09-28T04:14:04.302Z,59.20
2018-09-28T04:19:08.043Z,58.50
2018-09-28T04:24:11.760Z,58.20
2018-09-28T04:29:15.480Z,58.30
2018-09-28T04:34:19.207Z,58.10
2018-09-28T04:39:22.927Z,57.40
2018-09-28T04:44:26.640Z,57.70
2018-09-28T04:49:30.375Z,57.60
2018-09-28T04:54:34.105Z,56.60
2018-09-28T04:59:37.903Z,56.50
2018-09-28T05:04:41.615Z,56.10
2018-09-28T05:09:45.335Z,56.20
2018-09-28T05:14:49.063Z,57.80
2018-09-28T05:19:52.884Z,57.00
2018-09-28T05:24:56.603Z,56.40
2018-09-28T05:30:00.411Z,56.40
2018-09-28T05:35:04.169Z,55.60
2018-09-28T05:40:07.866Z,56.20
2018-09-28T05:45:11.595Z,56.00
2018-09-28T05:50:15.316Z,56.20
2018-09-28T05:55:19.135Z,56.00
2018-09-28T06:00:28.227Z,54.90
2018-09-28T06:05:36.550Z,56.20
2018-09-28T06:10:40.202Z,55.80
2018-09-28T06:15:43.899Z,55.60
2018-09-28T06:20:47.928Z,55.30
2018-09-28T06:25:51.693Z,55.50
2018-09-28T06:30:55.375Z,55.10
2018-09-28T06:35:59.178Z,55.50
2018-09-28T06:41:02.879Z,55.60
2018-09-28T06:46:06.622Z,55.30
2018-09-28T06:51:10.373Z,54.70
2018-09-28T06:56:14.096Z,54.80
2018-09-28T07:01:17.815Z,56.40
2018-09-28T07:06:21.605Z,55.20
2018-09-28T07:11:25.284Z,55.40
2018-09-28T07:16:29.091Z,55.10
2018-09-28T07:21:32.704Z,54.40
2018-09-28T07:26:36.475Z,54.90
2018-09-28T07:31:40.187Z,55.10
2018-09-28T07:36:44.050Z,54.00
2018-09-28T07:41:48.394Z,54.20
2018-09-28T07:46:52.893Z,54.20
2018-09-28T07:51:56.699Z,53.80
2018-09-28T07:57:00.411Z,53.70
2018-09-28T08:02:04.178Z,54.50
2018-09-28T08:07:07.928Z,53.40
2018-09-28T08:12:11.656Z,53.70
2018-09-28T08:17:15.395Z,52.10
2018-09-28T08:22:19.143Z,51.60
2018-09-28T08:27:22.947Z,52.40
2018-09-28T08:32:26.660Z,52.70
2018-09-28T08:37:30.367Z,53.30
2018-09-28T08:42:34.081Z,52.00
2018-09-28T08:47:37.803Z,51.00
2018-09-28T08:52:41.531Z,50.00
2018-09-28T08:57:45.258Z,51.20
2018-09-28T09:02:49.006Z,50.50
2018-09-28T09:07:52.760Z,48.30
2018-09-28T09:12:56.483Z,49.70
2018-09-28T09:18:00.404Z,51.30
2018-09-28T09:23:04.015Z,49.10
2018-09-28T09:28:07.986Z,47.90
2018-09-28T09:33:11.776Z,47.50
2018-09-28T09:38:15.775Z,46.50
2018-09-28T09:43:19.646Z,46.10
2018-09-28T09:48:23.592Z,45.00
2018-09-28T09:53:27.296Z,43.90
2018-09-28T09:58:31.005Z,45.20
2018-09-28T10:03:40.443Z,43.80
2018-09-28T10:08:44.171Z,45.80
2018-09-28T10:13:47.904Z,44.10
2018-09-28T10:18:51.615Z,43.80
2018-09-28T10:23:55.340Z,42.80
2018-09-28T10:28:59.061Z,43.00
2018-09-28T10:34:02.780Z,44.00
2018-09-28T10:39:07.301Z,44.40
2018-09-28T10:44:11.120Z,44.20
2018-09-28T10:49:14.839Z,43.20
2018-09-28T10:54:18.575Z,44.60
2018-09-28T10:59:22.319Z,44.30
2018-09-28T11:04:26.109Z,45.10
2018-09-28T11:09:29.833Z,45.40
2018-09-28T11:14:33.521Z,45.60
2018-09-28T11:19:37.287Z,45.30
2018-09-28T11:24:41.028Z,43.80
2018-09-28T11:29:44.812Z,44.90
2018-09-28T11:34:48.558Z,43.80
2018-09-28T11:39:52.288Z,42.50
2018-09-28T11:44:55.999Z,42.80
2018-09-28T11:49:59.780Z,45.10
2018-09-28T11:55:03.498Z,43.20
2018-09-28T12:00:07.240Z,42.60
2018-09-28T12:05:11.016Z,44.00
2018-09-28T12:10:14.671Z,42.50
2018-09-28T12:15:18.415Z,43.90
2018-09-28T12:20:22.131Z,43.60
2018-09-28T12:25:25.936Z,44.30
2018-09-28T12:30:29.726Z,43.90
2018-09-28T12:35:33.429Z,42.80
2018-09-28T12:40:37.193Z,45.00
2018-09-28T12:45:40.926Z,43.80
2018-09-28T12:50:44.619Z,44.80
2018-09-28T12:55:48.330Z,44.90
2018-09-28T13:00:52.186Z,45.20
2018-09-28T13:05:55.831Z,44.20
2018-09-28T13:10:59.555Z,42.70
2018-09-28T13:16:03.343Z,44.10
2018-09-28T13:21:07.119Z,44.60
2018-09-28T13:26:10.883Z,42.00
2018-09-28T13:31:14.535Z,42.70
2018-09-28T13:36:18.262Z,43.50
2018-09-28T13:41:21.957Z,44.40
2018-09-28T13:46:25.689Z,43.30
2018-09-28T13:51:29.404Z,43.50
2018-09-28T13:56:33.133Z,43.40
2018-09-28T14:01:36.837Z,43.10
2018-09-28T14:06:40.615Z,43.90
2018-09-28T14:11:44.303Z,44.90
2018-09-28T14:16:48.147Z,45.20
2018-09-28T14:21:51.795Z,44.60
2018-09-28T14:26:55.551Z,43.20
2018-09-28T14:31:59.279Z,43.50
2018-09-28T14:37:03.007Z,43.50
2018-09-28T14:42:06.734Z,43.80
2018-09-28T14:47:10.431Z,44.80
2018-09-28T14:52:14.198Z,44.80
2018-09-28T14:57:17.880Z,44.60
2018-09-28T15:02:21.701Z,43.00
2018-09-28T15:07:25.381Z,42.30
2018-09-28T15:12:29.115Z,42.60
2018-09-28T15:17:32.795Z,42.50
2018-09-28T15:22:36.516Z,43.10
2018-09-28T15:27:40.220Z,43.40
2018-09-28T15:32:43.943Z,42.30
2018-09-28T15:37:47.744Z,42.70
2018-09-28T15:42:51.474Z,43.50
2018-09-28T15:47:55.192Z,44.60
2018-09-28T15:52:58.912Z,44.00
2018-09-28T15:58:02.635Z,43.60
2018-09-28T16:03:06.347Z,43.90
2018-09-28T16:08:10.099Z,44.10
2018-09-28T16:13:13.858Z,43.60
2018-09-28T16:18:17.595Z,44.00
2018-09-28T16:23:21.320Z,45.00
2018-09-28T16:28:25.071Z,45.30
2018-09-28T16:33:28.786Z,45.10
2018-09-28T16:38:32.499Z,45.00
2018-09-28T16:43:36.252Z,46.30
2018-09-28T16:48:40.053Z,46.00
2018-09-28T16:53:43.792Z,46.10
2018-09-28T16:58:47.592Z,46.20
2018-09-28T17:03:51.320Z,46.20
2018-09-28T17:08:55.139Z,45.80
2018-09-28T17:13:58.850Z,46.40
2018-09-28T17:19:02.820Z,46.80
2018-09-28T17:24:06.546Z,46.20
2018-09-28T17:29:10.276Z,46.60
2018-09-28T17:34:14.008Z,47.00
2018-09-28T17:39:17.746Z,47.20
2018-09-28T17:44:21.512Z,48.00
2018-09-28T17:49:25.306Z,47.60
2018-09-28T17:54:29.041Z,47.60
2018-09-28T17:59:32.811Z,48.30
2018-09-28T18:04:36.502Z,49.00
2018-09-28T18:09:40.321Z,49.60
2018-09-28T18:14:44.052Z,50.00
2018-09-28T18:19:47.957Z,50.30
2018-09-28T18:24:51.667Z,49.70
2018-09-28T18:29:55.496Z,50.20
2018-09-28T18:34:59.306Z,50.70
2018-09-28T18:40:03.047Z,50.60
2018-09-28T18:45:06.924Z,50.80
2018-09-28T18:50:10.692Z,51.20
2018-09-28T18:55:14.524Z,50.10
2018-09-28T19:00:18.327Z,51.10
2018-09-28T19:05:22.171Z,51.30
2018-09-28T19:10:25.887Z,51.50
2018-09-28T19:15:29.608Z,51.20
2018-09-28T19:20:33.328Z,51.50
2018-09-28T19:25:37.162Z,51.80
2018-09-28T19:30:40.994Z,51.60
2018-09-28T19:35:44.663Z,52.10
2018-09-28T19:40:48.439Z,52.40
2018-09-28T19:45:52.235Z,51.80
2018-09-28T19:50:56.300Z,52.40
2018-09-28T19:56:00.111Z,52.40
2018-09-28T20:01:03.896Z,52.60
2018-09-28T20:06:07.784Z,53.00
2018-09-28T20:11:11.519Z,53.40
2018-09-28T20:16:15.283Z,53.50
2018-09-28T20:21:19.128Z,52.90
2018-09-28T20:26:22.924Z,53.90
2018-09-28T20:31:26.796Z,53.60
2018-09-28T20:36:30.683Z,54.20
2018-09-28T20:41:34.518Z,54.00
2018-09-28T20:46:38.455Z,53.80
2018-09-28T20:51:42.247Z,53.90
2018-09-28T20:56:46.072Z,53.90
2018-09-28T21:01:49.891Z,54.10
2018-09-28T21:06:53.711Z,54.40
2018-09-28T21:11:57.432Z,54.20
2018-09-28T21:17:01.163Z,54.40
2018-09-28T21:22:04.879Z,54.40
2018-09-28T21:27:08.713Z,55.00
2018-09-28T21:32:12.419Z,54.60
2018-09-28T21:37:16.119Z,55.50
2018-09-28T21:42:19.839Z,55.40
2018-09-28T21:47:23.566Z,55.20
2018-09-28T21:52:28.223Z,55.20
2018-09-28T21:57:31.943Z,54.80
2018-09-28T22:02:35.800Z,55.20
2018-09-28T22:07:39.536Z,55.00
2018-09-28T22:12:43.327Z,55.40
2018-09-28T22:17:47.076Z,55.20
2018-09-28T22:22:51.203Z,55.80
2018-09-28T22:27:54.931Z,55.30
2018-09-28T22:32:58.642Z,55.40
2018-09-28T22:38:02.487Z,55.70
2018-09-28T22:43:06.376Z,56.00
2018-09-28T22:48:10.083Z,56.20
2018-09-28T22:53:14.304Z,55.80
2018-09-28T22:58:18.047Z,55.80
2018-09-28T23:03:21.855Z,56.20
2018-09-28T23:08:25.583Z,56.20
2018-09-28T23:13:29.320Z,56.20
2018-09-28T23:18:33.039Z,56.50
2018-09-28T23:23:36.739Z,56.40
2018-09-28T23:28:40.716Z,56.40
2018-09-28T23:33:44.460Z,56.50
2018-09-28T23:38:48.187Z,56.70
2018-09-28T23:43:51.891Z,56.70
2018-09-28T23:48:55.675Z,56.70
2018-09-28T23:54:00.375Z,56.40
2018-09-28T23:59:04.140Z,56.60
